sensor_id;sensor_type;location;lat;lon;timestamp;pressure;altitude;pressure_sealevel;temperature;humidity
39739;BME280;25422;48.286;8.484;2023-11-21T00:00:05;93499.13;;;4.38;100.00
39739;BME280;25422;48.286;8.484;2023-11-21T00:02:38;93502.38;;;4.41;100.00
39739;BME280;25422;48.286;8.484;2023-11-21T00:05:07;93496.38;;;4.40;100.00
39739;BME280;25422;48.286;8.484;2023-11-21T00:07:35;93493.66;;;4.42;100.00
39739;BME280;25422;48.286;8.484;2023-11-21T00:10:01;93490.25;;;4.41;100.00
39739;BME280;25422;48.286;8.484;2023-11-21T00:12:26;93489.41;;;4.41;100.00
39739;BME280;25422;48.286;8.484;2023-11-21T00:14:52;93481.97;;;4.37;100.00
39739;BME280;25422;48.286;8.484;2023-11-21T00:17:18;93483.28;;;4.42;100.00
39739;BME280;25422;48.286;8.484;2023-11-21T00:19:44;93478.91;;;4.42;100.00
39739;BME280;25422;48.286;8.484;2023-11-21T00:22:09;93490.53;;;4.38;100.00
39739;BME280;25422;48.286;8.484;2023-11-21T00:24:35;93496.69;;;4.37;100.00
39739;BME280;25422;48.286;8.484;2023-11-21T00:27:00;93496.75;;;4.45;100.00
39739;BME280;25422;48.286;8.484;2023-11-21T00:29:26;93489.28;;;4.42;100.00
39739;BME280;25422;48.286;8.484;2023-11-21T00:31:51;93483.66;;;4.47;100.00
39739;BME280;25422;48.286;8.484;2023-11-21T00:34:17;93489.66;;;4.47;100.00
39739;BME280;25422;48.286;8.484;2023-11-21T00:36:42;93497.41;;;4.47;100.00
39739;BME280;25422;48.286;8.484;2023-11-21T00:39:08;93487.22;;;4.46;100.00
39739;BME280;25422;48.286;8.484;2023-11-21T00:41:33;93483.97;;;4.44;100.00
39739;BME280;25422;48.286;8.484;2023-11-21T00:44:00;93488.47;;;4.42;100.00
39739;BME280;25422;48.286;8.484;2023-11-21T00:46:26;93483.97;;;4.44;100.00
39739;BME280;25422;48.286;8.484;2023-11-21T00:48:54;93484.91;;;4.43;100.00
39739;BME280;25422;48.286;8.484;2023-11-21T00:51:20;93482.34;;;4.43;100.00
39739;BME280;25422;48.286;8.484;2023-11-21T00:53:46;93485.88;;;4.42;100.00
39739;BME280;25422;48.286;8.484;2023-11-21T00:56:12;93483.59;;;4.38;100.00
39739;BME280;25422;48.286;8.484;2023-11-21T00:58:37;93486.63;;;4.34;100.00
39739;BME280;25422;48.286;8.484;2023-11-21T01:01:02;93483.75;;;4.37;100.00
39739;BME280;25422;48.286;8.484;2023-11-21T01:03:28;93477.47;;;4.39;100.00
39739;BME280;25422;48.286;8.484;2023-11-21T01:05:54;93475.44;;;4.33;100.00
39739;BME280;25422;48.286;8.484;2023-11-21T01:08:20;93472.19;;;4.31;100.00
39739;BME280;25422;48.286;8.484;2023-11-21T01:10:46;93469.47;;;4.33;100.00
39739;BME280;25422;48.286;8.484;2023-11-21T01:13:12;93477.00;;;4.26;100.00
39739;BME280;25422;48.286;8.484;2023-11-21T01:15:38;93469.59;;;4.31;100.00
39739;BME280;25422;48.286;8.484;2023-11-21T01:18:03;93467.31;;;4.28;100.00
39739;BME280;25422;48.286;8.484;2023-11-21T01:20:29;93464.06;;;4.26;100.00
39739;BME280;25422;48.286;8.484;2023-11-21T01:22:54;93462.13;;;4.28;100.00
39739;BME280;25422;48.286;8.484;2023-11-21T01:25:20;93478.13;;;4.24;100.00
39739;BME280;25422;48.286;8.484;2023-11-21T01:27:46;93470.34;;;4.24;100.00
39739;BME280;25422;48.286;8.484;2023-11-21T01:30:12;93472.13;;;4.23;100.00
39739;BME280;25422;48.286;8.484;2023-11-21T01:32:38;93471.47;;;4.21;100.00
39739;BME280;25422;48.286;8.484;2023-11-21T01:35:05;93471.16;;;4.24;100.00
39739;BME280;25422;48.286;8.484;2023-11-21T01:37:32;93484.94;;;4.25;100.00
39739;BME280;25422;48.286;8.484;2023-11-21T01:39:58;93483.16;;;4.25;100.00
39739;BME280;25422;48.286;8.484;2023-11-21T01:42:24;93474.44;;;4.26;100.00
39739;BME280;25422;48.286;8.484;2023-11-21T01:44:49;93476.72;;;4.29;100.00
39739;BME280;25422;48.286;8.484;2023-11-21T01:47:16;93473.66;;;4.34;100.00
39739;BME280;25422;48.286;8.484;2023-11-21T01:49:46;93479.38;;;4.37;100.00
39739;BME280;25422;48.286;8.484;2023-11-21T01:52:12;93462.34;;;4.35;100.00
39739;BME280;25422;48.286;8.484;2023-11-21T01:54:38;93476.41;;;4.32;100.00
39739;BME280;25422;48.286;8.484;2023-11-21T01:57:04;93468.47;;;4.34;100.00
39739;BME280;25422;48.286;8.484;2023-11-21T01:59:35;93475.75;;;4.30;100.00
39739;BME280;25422;48.286;8.484;2023-11-21T02:02:07;93471.22;;;4.32;100.00
39739;BME280;25422;48.286;8.484;2023-11-21T02:04:36;93475.97;;;4.37;100.00
39739;BME280;25422;48.286;8.484;2023-11-21T02:07:03;93473.38;;;4.37;100.00
39739;BME280;25422;48.286;8.484;2023-11-21T02:09:30;93470.50;;;4.40;100.00
39739;BME280;25422;48.286;8.484;2023-11-21T02:11:56;93462.03;;;4.38;100.00
39739;BME280;25422;48.286;8.484;2023-11-21T02:14:27;93465.47;;;4.38;100.00
39739;BME280;25422;48.286;8.484;2023-11-21T02:16:53;93463.53;;;4.41;100.00
39739;BME280;25422;48.286;8.484;2023-11-21T02:19:21;93474.88;;;4.39;100.00
39739;BME280;25422;48.286;8.484;2023-11-21T02:21:52;93469.31;;;4.34;100.00
39739;BME280;25422;48.286;8.484;2023-11-21T02:24:21;93471.22;;;4.32;100.00
39739;BME280;25422;48.286;8.484;2023-11-21T02:26:50;93471.47;;;4.21;100.00
39739;BME280;25422;48.286;8.484;2023-11-21T02:29:21;93472.94;;;4.24;100.00
39739;BME280;25422;48.286;8.484;2023-11-21T02:31:55;93476.19;;;4.26;100.00
39739;BME280;25422;48.286;8.484;2023-11-21T02:34:22;93471.47;;;4.21;100.00
39739;BME280;25422;48.286;8.484;2023-11-21T02:36:48;93466.28;;;4.21;100.00
39739;BME280;25422;48.286;8.484;2023-11-21T02:39:15;93472.94;;;4.24;100.00
39739;BME280;25422;48.286;8.484;2023-11-21T02:41:42;93469.41;;;4.25;100.00
39739;BME280;25422;48.286;8.484;2023-11-21T02:44:08;93460.28;;;4.20;100.00
39739;BME280;25422;48.286;8.484;2023-11-21T02:46:35;93459.16;;;4.23;100.00
39739;BME280;25422;48.286;8.484;2023-11-21T02:49:05;93461.47;;;4.26;100.00
39739;BME280;25422;48.286;8.484;2023-11-21T02:51:32;93455.47;;;4.26;100.00
39739;BME280;25422;48.286;8.484;2023-11-21T02:53:58;93456.56;;;4.23;100.00
39739;BME280;25422;48.286;8.484;2023-11-21T02:56:25;93455.25;;;4.19;100.00
39739;BME280;25422;48.286;8.484;2023-11-21T02:58:52;93456.34;;;4.16;100.00
39739;BME280;25422;48.286;8.484;2023-11-21T03:01:17;93453.03;;;4.24;100.00
39739;BME280;25422;48.286;8.484;2023-11-21T03:03:43;93456.56;;;4.23;100.00
39739;BME280;25422;48.286;8.484;2023-11-21T03:06:08;93454.38;;;4.28;100.00
39739;BME280;25422;48.286;8.484;2023-11-21T03:08:34;93457.09;;;4.27;100.00
39739;BME280;25422;48.286;8.484;2023-11-21T03:11:01;93460.00;;;4.24;100.00
39739;BME280;25422;48.286;8.484;2023-11-21T03:13:28;93456.22;;;4.18;100.00
39739;BME280;25422;48.286;8.484;2023-11-21T03:15:53;93455.56;;;4.16;100.00
39739;BME280;25422;48.286;8.484;2023-11-21T03:18:19;93455.56;;;4.16;100.00
39739;BME280;25422;48.286;8.484;2023-11-21T03:20:47;93455.09;;;4.20;100.00
39739;BME280;25422;48.286;8.484;2023-11-21T03:23:12;93461.53;;;4.16;100.00
39739;BME280;25422;48.286;8.484;2023-11-21T03:25:38;93461.75;;;4.23;100.00
39739;BME280;25422;48.286;8.484;2023-11-21T03:28:04;93464.81;;;4.18;100.00
39739;BME280;25422;48.286;8.484;2023-11-21T03:30:29;93465.09;;;4.15;100.00
39739;BME280;25422;48.286;8.484;2023-11-21T03:32:54;93462.00;;;4.12;100.00
39739;BME280;25422;48.286;8.484;2023-11-21T03:35:20;93465.59;;;4.19;100.00
39739;BME280;25422;48.286;8.484;2023-11-21T03:37:46;93471.09;;;4.16;100.00
39739;BME280;25422;48.286;8.484;2023-11-21T03:40:12;93466.59;;;4.18;100.00
39739;BME280;25422;48.286;8.484;2023-11-21T03:42:38;93469.75;;;4.12;100.00
39739;BME280;25422;48.286;8.484;2023-11-21T03:45:05;93463.09;;;4.09;100.00
39739;BME280;25422;48.286;8.484;2023-11-21T03:47:31;93462.22;;;4.00;100.00
39739;BME280;25422;48.286;8.484;2023-11-21T03:49:57;93461.69;;;3.97;100.00
39739;BME280;25422;48.286;8.484;2023-11-21T03:52:22;93468.03;;;4.02;100.00
39739;BME280;25422;48.286;8.484;2023-11-21T03:54:48;93467.53;;;3.99;100.00
39739;BME280;25422;48.286;8.484;2023-11-21T03:57:13;93469.16;;;4.00;100.00
39739;BME280;25422;48.286;8.484;2023-11-21T03:59:45;93474.47;;;3.98;100.00
39739;BME280;25422;48.286;8.484;2023-11-21T04:02:10;93474.09;;;3.93;100.00
39739;BME280;25422;48.286;8.484;2023-11-21T04:04:36;93473.88;;;3.86;100.00
39739;BME280;25422;48.286;8.484;2023-11-21T04:07:01;93475.00;;;3.84;100.00
39739;BME280;25422;48.286;8.484;2023-11-21T04:09:27;93477.28;;;3.87;100.00
39739;BME280;25422;48.286;8.484;2023-11-21T04:11:53;93468.03;;;3.84;100.00
39739;BME280;25422;48.286;8.484;2023-11-21T04:14:19;93469.94;;;3.82;100.00
39739;BME280;25422;48.286;8.484;2023-11-21T04:16:44;93473.06;;;3.86;100.00
39739;BME280;25422;48.286;8.484;2023-11-21T04:19:10;93475.66;;;3.86;100.00
39739;BME280;25422;48.286;8.484;2023-11-21T04:21:39;93477.13;;;3.88;100.00
39739;BME280;25422;48.286;8.484;2023-11-21T04:24:04;93470.25;;;3.79;100.00
39739;BME280;25422;48.286;8.484;2023-11-21T04:26:30;93472.69;;;3.81;100.00
39739;BME280;25422;48.286;8.484;2023-11-21T04:28:55;93463.16;;;3.81;100.00
39739;BME280;25422;48.286;8.484;2023-11-21T04:31:21;93470.47;;;3.86;100.00
39739;BME280;25422;48.286;8.484;2023-11-21T04:33:46;93469.00;;;3.83;100.00
39739;BME280;25422;48.286;8.484;2023-11-21T04:36:12;93468.84;;;3.85;100.00
39739;BME280;25422;48.286;8.484;2023-11-21T04:38:37;93472.19;;;3.77;100.00
39739;BME280;25422;48.286;8.484;2023-11-21T04:41:03;93483.91;;;3.71;100.00
39739;BME280;25422;48.286;8.484;2023-11-21T04:43:28;93485.00;;;3.69;100.00
39739;BME280;25422;48.286;8.484;2023-11-21T04:45:54;93479.97;;;3.67;100.00
39739;BME280;25422;48.286;8.484;2023-11-21T04:48:20;93482.06;;;3.64;100.00
39739;BME280;25422;48.286;8.484;2023-11-21T04:50:45;93487.22;;;3.64;100.00
39739;BME280;25422;48.286;8.484;2023-11-21T04:53:11;93489.66;;;3.65;100.00
39739;BME280;25422;48.286;8.484;2023-11-21T04:55:39;93492.66;;;3.61;100.00
39739;BME280;25422;48.286;8.484;2023-11-21T04:58:04;93488.09;;;3.54;100.00
39739;BME280;25422;48.286;8.484;2023-11-21T05:00:30;93486.59;;;3.52;100.00
39739;BME280;25422;48.286;8.484;2023-11-21T05:02:55;93484.00;;;3.52;100.00
39739;BME280;25422;48.286;8.484;2023-11-21T05:05:21;93491.78;;;3.52;100.00
39739;BME280;25422;48.286;8.484;2023-11-21T05:07:46;93490.81;;;3.53;100.00
39739;BME280;25422;48.286;8.484;2023-11-21T05:10:11;93489.19;;;3.52;100.00
39739;BME280;25422;48.286;8.484;2023-11-21T05:12:40;93497.88;;;3.51;100.00
39739;BME280;25422;48.286;8.484;2023-11-21T05:15:07;93496.16;;;3.42;100.00
39739;BME280;25422;48.286;8.484;2023-11-21T05:17:39;93494.66;;;3.39;100.00
39739;BME280;25422;48.286;8.484;2023-11-21T05:20:09;93502.72;;;3.36;100.00
39739;BME280;25422;48.286;8.484;2023-11-21T05:22:38;93502.31;;;3.31;100.00
39739;BME280;25422;48.286;8.484;2023-11-21T05:25:05;93507.50;;;3.31;100.00
39739;BME280;25422;48.286;8.484;2023-11-21T05:27:32;93507.09;;;3.35;100.00
39739;BME280;25422;48.286;8.484;2023-11-21T05:29:58;93510.63;;;3.34;100.00
39739;BME280;25422;48.286;8.484;2023-11-21T05:32:24;93514.56;;;3.38;100.00
39739;BME280;25422;48.286;8.484;2023-11-21T05:34:50;93514.69;;;3.37;100.00
39739;BME280;25422;48.286;8.484;2023-11-21T05:37:15;93514.84;;;3.35;100.00
39739;BME280;25422;48.286;8.484;2023-11-21T05:39:42;93512.91;;;3.37;100.00
39739;BME280;25422;48.286;8.484;2023-11-21T05:42:08;93509.38;;;3.38;100.00
39739;BME280;25422;48.286;8.484;2023-11-21T05:44:35;93514.84;;;3.35;100.00
39739;BME280;25422;48.286;8.484;2023-11-21T05:47:01;93518.38;;;3.34;100.00
39739;BME280;25422;48.286;8.484;2023-11-21T05:49:26;93522.59;;;3.35;100.00
39739;BME280;25422;48.286;8.484;2023-11-21T05:51:55;93522.69;;;3.44;100.00
39739;BME280;25422;48.286;8.484;2023-11-21T05:54:21;93514.50;;;3.48;100.00
39739;BME280;25422;48.286;8.484;2023-11-21T05:56:47;93521.16;;;3.51;100.00
39739;BME280;25422;48.286;8.484;2023-11-21T05:59:12;93525.25;;;3.53;100.00
39739;BME280;25422;48.286;8.484;2023-11-21T06:01:38;93524.28;;;3.54;100.00
39739;BME280;25422;48.286;8.484;2023-11-21T06:04:05;93516.19;;;3.67;100.00
39739;BME280;25422;48.286;8.484;2023-11-21T06:06:30;93524.25;;;3.64;100.00
39739;BME280;25422;48.286;8.484;2023-11-21T06:08:57;93524.25;;;3.64;100.00
39739;BME280;25422;48.286;8.484;2023-11-21T06:11:22;93528.56;;;3.74;100.00
39739;BME280;25422;48.286;8.484;2023-11-21T06:13:47;93538.91;;;3.74;100.00
39739;BME280;25422;48.286;8.484;2023-11-21T06:16:13;93545.03;;;3.72;100.00
39739;BME280;25422;48.286;8.484;2023-11-21T06:18:41;93539.44;;;3.77;100.00
39739;BME280;25422;48.286;8.484;2023-11-21T06:21:09;93544.56;;;3.87;100.00
39739;BME280;25422;48.286;8.484;2023-11-21T06:23:35;93538.53;;;3.96;100.00
39739;BME280;25422;48.286;8.484;2023-11-21T06:26:00;93543.25;;;4.01;100.00
39739;BME280;25422;48.286;8.484;2023-11-21T06:28:26;93544.06;;;4.01;100.00
39739;BME280;25422;48.286;8.484;2023-11-21T06:30:51;93540.66;;;4.01;100.00
39739;BME280;25422;48.286;8.484;2023-11-21T06:33:18;93554.72;;;3.98;100.00
39739;BME280;25422;48.286;8.484;2023-11-21T06:35:44;93552.13;;;3.98;100.00
39739;BME280;25422;48.286;8.484;2023-11-21T06:38:10;93557.31;;;3.98;100.00
39739;BME280;25422;48.286;8.484;2023-11-21T06:40:35;93552.41;;;3.95;100.00
39739;BME280;25422;48.286;8.484;2023-11-21T06:43:01;93554.19;;;3.95;100.00
39739;BME280;25422;48.286;8.484;2023-11-21T06:45:26;93555.97;;;3.94;100.00
39739;BME280;25422;48.286;8.484;2023-11-21T06:47:52;93554.31;;;3.93;100.00
39739;BME280;25422;48.286;8.484;2023-11-21T06:50:17;93554.31;;;3.93;100.00
39739;BME280;25422;48.286;8.484;2023-11-21T06:52:43;93560.34;;;3.94;100.00
39739;BME280;25422;48.286;8.484;2023-11-21T06:55:08;93561.13;;;3.94;100.00
39739;BME280;25422;48.286;8.484;2023-11-21T06:57:35;93570.53;;;3.95;100.00
39739;BME280;25422;48.286;8.484;2023-11-21T07:00:00;93565.50;;;3.94;100.00
39739;BME280;25422;48.286;8.484;2023-11-21T07:02:26;93569.06;;;3.93;100.00
39739;BME280;25422;48.286;8.484;2023-11-21T07:04:52;93577.91;;;3.90;100.00
39739;BME280;25422;48.286;8.484;2023-11-21T07:07:18;93578.06;;;3.88;100.00
39739;BME280;25422;48.286;8.484;2023-11-21T07:09:44;93586.78;;;3.87;100.00
39739;BME280;25422;48.286;8.484;2023-11-21T07:12:10;93590.19;;;3.88;100.00
39739;BME280;25422;48.286;8.484;2023-11-21T07:14:36;93592.25;;;3.84;100.00
39739;BME280;25422;48.286;8.484;2023-11-21T07:17:04;93599.88;;;3.86;100.00
39739;BME280;25422;48.286;8.484;2023-11-21T07:19:30;93599.00;;;3.95;100.00
39739;BME280;25422;48.286;8.484;2023-11-21T07:21:56;93597.63;;;4.01;100.00
39739;BME280;25422;48.286;8.484;2023-11-21T07:24:21;93602.94;;;3.99;100.00
39739;BME280;25422;48.286;8.484;2023-11-21T07:26:48;93602.13;;;3.99;100.00
39739;BME280;25422;48.286;8.484;2023-11-21T07:29:14;93600.19;;;4.01;100.00
39739;BME280;25422;48.286;8.484;2023-11-21T07:31:39;93605.78;;;4.06;100.00
39739;BME280;25422;48.286;8.484;2023-11-21T07:34:06;93607.91;;;4.11;100.00
39739;BME280;25422;48.286;8.484;2023-11-21T07:36:33;93610.13;;;4.05;100.00
39739;BME280;25422;48.286;8.484;2023-11-21T07:38:58;93616.78;;;4.08;100.00
39739;BME280;25422;48.286;8.484;2023-11-21T07:41:24;93613.78;;;4.13;100.00
39739;BME280;25422;48.286;8.484;2023-11-21T07:43:49;93615.81;;;4.09;100.00
39739;BME280;25422;48.286;8.484;2023-11-21T07:46:15;93621.97;;;4.08;100.00
39739;BME280;25422;48.286;8.484;2023-11-21T07:48:42;93624.28;;;4.11;100.00
39739;BME280;25422;48.286;8.484;2023-11-21T07:51:08;93621.41;;;4.14;100.00
39739;BME280;25422;48.286;8.484;2023-11-21T07:53:34;93624.53;;;4.18;100.00
39739;BME280;25422;48.286;8.484;2023-11-21T07:56:04;93624.88;;;4.23;100.00
39739;BME280;25422;48.286;8.484;2023-11-21T07:58:30;93630.06;;;4.23;100.00
39739;BME280;25422;48.286;8.484;2023-11-21T08:00:56;93627.47;;;4.23;100.00
39739;BME280;25422;48.286;8.484;2023-11-21T08:03:21;93630.75;;;4.25;100.00
39739;BME280;25422;48.286;8.484;2023-11-21T08:05:47;93629.25;;;4.22;100.00
39739;BME280;25422;48.286;8.484;2023-11-21T08:08:12;93625.97;;;4.20;100.00
39739;BME280;25422;48.286;8.484;2023-11-21T08:10:38;93625.09;;;4.12;100.00
39739;BME280;25422;48.286;8.484;2023-11-21T08:13:07;93629.47;;;4.11;100.00
39739;BME280;25422;48.286;8.484;2023-11-21T08:15:34;93628.34;;;4.14;100.00
39739;BME280;25422;48.286;8.484;2023-11-21T08:18:00;93632.78;;;4.21;100.00
39739;BME280;25422;48.286;8.484;2023-11-21T08:20:26;93638.41;;;4.17;100.00
39739;BME280;25422;48.286;8.484;2023-11-21T08:22:51;93634.63;;;4.11;100.00
39739;BME280;25422;48.286;8.484;2023-11-21T08:25:18;93632.56;;;4.15;100.00
39739;BME280;25422;48.286;8.484;2023-11-21T08:27:45;93638.94;;;4.20;100.00
39739;BME280;25422;48.286;8.484;2023-11-21T08:30:11;93643.41;;;4.28;100.00
39739;BME280;25422;48.286;8.484;2023-11-21T08:32:39;93637.41;;;4.28;100.00
39739;BME280;25422;48.286;8.484;2023-11-21T08:35:04;93644.81;;;4.41;100.00
39739;BME280;25422;48.286;8.484;2023-11-21T08:37:31;93644.31;;;4.37;100.00
39739;BME280;25422;48.286;8.484;2023-11-21T08:39:58;93647.31;;;4.32;100.00
39739;BME280;25422;48.286;8.484;2023-11-21T08:42:27;93652.88;;;4.37;100.00
39739;BME280;25422;48.286;8.484;2023-11-21T08:44:55;93662.00;;;4.42;100.00
39739;BME280;25422;48.286;8.484;2023-11-21T08:47:23;93656.25;;;4.48;100.00
39739;BME280;25422;48.286;8.484;2023-11-21T08:49:50;93657.44;;;4.53;100.00
39739;BME280;25422;48.286;8.484;2023-11-21T08:52:19;93651.72;;;4.50;100.00
39739;BME280;25422;48.286;8.484;2023-11-21T08:54:46;93651.34;;;4.45;100.00
39739;BME280;25422;48.286;8.484;2023-11-21T08:57:11;93656.53;;;4.45;100.00
39739;BME280;25422;48.286;8.484;2023-11-21T08:59:37;93658.59;;;4.41;100.00
39739;BME280;25422;48.286;8.484;2023-11-21T09:02:02;93658.47;;;4.43;100.00
39739;BME280;25422;48.286;8.484;2023-11-21T09:04:27;93661.34;;;4.39;100.00
39739;BME280;25422;48.286;8.484;2023-11-21T09:06:53;93658.47;;;4.43;100.00
39739;BME280;25422;48.286;8.484;2023-11-21T09:09:18;93661.78;;;4.53;100.00
39739;BME280;25422;48.286;8.484;2023-11-21T09:11:45;93661.69;;;4.45;100.00
39739;BME280;25422;48.286;8.484;2023-11-21T09:14:11;93658.06;;;4.37;100.00
39739;BME280;25422;48.286;8.484;2023-11-21T09:16:39;93665.28;;;4.44;100.00
39739;BME280;25422;48.286;8.484;2023-11-21T09:19:04;93663.97;;;4.58;100.00
39739;BME280;25422;48.286;8.484;2023-11-21T09:21:30;93661.88;;;4.61;100.00
39739;BME280;25422;48.286;8.484;2023-11-21T09:23:56;93676.28;;;4.73;100.00
39739;BME280;25422;48.286;8.484;2023-11-21T09:26:21;93678.78;;;4.65;100.00
39739;BME280;25422;48.286;8.484;2023-11-21T09:28:47;93673.94;;;4.52;100.00
39739;BME280;25422;48.286;8.484;2023-11-21T09:31:13;93677.41;;;4.61;100.00
39739;BME280;25422;48.286;8.484;2023-11-21T09:33:42;93679.81;;;4.72;100.00
39739;BME280;25422;48.286;8.484;2023-11-21T09:36:12;93681.75;;;4.70;100.00
39739;BME280;25422;48.286;8.484;2023-11-21T09:38:39;93696.16;;;4.55;100.00
39739;BME280;25422;48.286;8.484;2023-11-21T09:41:05;93693.47;;;4.47;100.00
39739;BME280;25422;48.286;8.484;2023-11-21T09:43:35;93700.28;;;4.48;100.00
39739;BME280;25422;48.286;8.484;2023-11-21T09:46:01;93697.16;;;4.44;100.00
39739;BME280;25422;48.286;8.484;2023-11-21T09:48:29;93702.81;;;4.58;100.00
39739;BME280;25422;48.286;8.484;2023-11-21T09:50:56;93709.88;;;4.65;100.00
39739;BME280;25422;48.286;8.484;2023-11-21T09:53:22;93707.56;;;4.62;100.00
39739;BME280;25422;48.286;8.484;2023-11-21T09:55:52;93705.25;;;4.59;100.00
39739;BME280;25422;48.286;8.484;2023-11-21T09:58:19;93707.94;;;4.67;100.00
39739;BME280;25422;48.286;8.484;2023-11-21T10:00:49;93708.75;;;4.68;100.00
39739;BME280;25422;48.286;8.484;2023-11-21T10:03:16;93712.03;;;4.70;100.00
39739;BME280;25422;48.286;8.484;2023-11-21T10:05:42;93713.03;;;4.59;100.00
39739;BME280;25422;48.286;8.484;2023-11-21T10:08:10;93711.56;;;4.56;100.00
39739;BME280;25422;48.286;8.484;2023-11-21T10:10:37;93711.94;;;4.62;100.00
39739;BME280;25422;48.286;8.484;2023-11-21T10:13:06;93708.47;;;4.71;100.00
39739;BME280;25422;48.286;8.484;2023-11-21T10:15:35;93709.88;;;4.65;100.00
39739;BME280;25422;48.286;8.484;2023-11-21T10:18:03;93714.00;;;4.58;100.00
39739;BME280;25422;48.286;8.484;2023-11-21T10:20:29;93723.88;;;4.45;100.00
39739;BME280;25422;48.286;8.484;2023-11-21T10:22:55;93713.50;;;4.45;100.00
39739;BME280;25422;48.286;8.484;2023-11-21T10:25:22;93716.88;;;4.55;100.00
39739;BME280;25422;48.286;8.484;2023-11-21T10:27:48;93714.69;;;4.60;100.00
39739;BME280;25422;48.286;8.484;2023-11-21T10:30:17;93711.50;;;4.66;100.00
39739;BME280;25422;48.286;8.484;2023-11-21T10:32:43;93707.41;;;4.64;100.00
39739;BME280;25422;48.286;8.484;2023-11-21T10:35:09;93707.94;;;4.67;100.00
39739;BME280;25422;48.286;8.484;2023-11-21T10:37:36;93715.66;;;4.77;100.00
39739;BME280;25422;48.286;8.484;2023-11-21T10:40:09;93713.69;;;4.89;100.00
39739;BME280;25422;48.286;8.484;2023-11-21T10:42:40;93716.06;;;5.00;100.00
39739;BME280;25422;48.286;8.484;2023-11-21T10:45:09;93714.97;;;5.21;100.00
39739;BME280;25422;48.286;8.484;2023-11-21T10:47:40;93713.13;;;5.13;100.00
39739;BME280;25422;48.286;8.484;2023-11-21T10:50:07;93707.69;;;5.06;100.00
39739;BME280;25422;48.286;8.484;2023-11-21T10:52:37;93706.91;;;5.24;100.00
39739;BME280;25422;48.286;8.484;2023-11-21T10:55:18;93718.91;;;5.25;100.00
39739;BME280;25422;48.286;8.484;2023-11-21T10:57:53;93708.22;;;5.28;100.00
39739;BME280;25422;48.286;8.484;2023-11-21T11:00:19;93713.63;;;5.35;100.00
39739;BME280;25422;48.286;8.484;2023-11-21T11:02:52;93713.84;;;5.42;100.00
39739;BME280;25422;48.286;8.484;2023-11-21T11:05:20;93713.69;;;5.43;100.00
39739;BME280;25422;48.286;8.484;2023-11-21T11:07:48;93716.81;;;5.29;100.00
39739;BME280;25422;48.286;8.484;2023-11-21T11:10:20;93705.78;;;5.27;100.00
39739;BME280;25422;48.286;8.484;2023-11-21T11:12:48;93715.41;;;5.34;100.00
39739;BME280;25422;48.286;8.484;2023-11-21T11:15:16;93712.38;;;5.39;100.00
39739;BME280;25422;48.286;8.484;2023-11-21T11:17:42;93713.78;;;5.51;100.00
39739;BME280;25422;48.286;8.484;2023-11-21T11:20:12;93709.22;;;5.53;100.00
39739;BME280;25422;48.286;8.484;2023-11-21T11:22:45;93705.03;;;5.52;100.00
39739;BME280;25422;48.286;8.484;2023-11-21T11:27:54;93707.84;;;5.59;100.00
39739;BME280;25422;48.286;8.484;2023-11-21T11:33:14;93710.06;;;5.54;100.00
39739;BME280;25422;48.286;8.484;2023-11-21T11:38:12;93711.47;;;5.48;100.00
39739;BME280;25422;48.286;8.484;2023-11-21T11:40:45;93713.84;;;5.42;100.00
39739;BME280;25422;48.286;8.484;2023-11-21T11:43:11;93716.06;;;5.54;100.00
39739;BME280;25422;48.286;8.484;2023-11-21T11:45:37;93720.75;;;5.51;100.00
39739;BME280;25422;48.286;8.484;2023-11-21T11:48:11;93722.97;;;5.46;100.00
39739;BME280;25422;48.286;8.484;2023-11-21T11:50:53;93719.47;;;5.37;100.00
39739;BME280;25422;48.286;8.484;2023-11-21T11:53:33;93728.81;;;5.48;100.00
39739;BME280;25422;48.286;8.484;2023-11-21T11:56:33;93723.69;;;5.56;100.00
39739;BME280;25422;48.286;8.484;2023-11-21T11:59:04;93725.53;;;5.64;100.00
39739;BME280;25422;48.286;8.484;2023-11-21T12:01:32;93724.00;;;5.53;100.00
39739;BME280;25422;48.286;8.484;2023-11-21T12:07:02;93726.28;;;5.74;100.00
39739;BME280;25422;48.286;8.484;2023-11-21T12:09:29;93722.50;;;5.68;100.00
39739;BME280;25422;48.286;8.484;2023-11-21T12:11:56;93724.38;;;5.58;100.00
39739;BME280;25422;48.286;8.484;2023-11-21T12:14:22;93723.25;;;5.61;100.00
39739;BME280;25422;48.286;8.484;2023-11-21T12:16:47;93722.84;;;5.73;100.00
39739;BME280;25422;48.286;8.484;2023-11-21T12:19:13;93723.97;;;5.71;100.00
39739;BME280;25422;48.286;8.484;2023-11-21T12:21:39;93727.19;;;5.47;100.00
39739;BME280;25422;48.286;8.484;2023-11-21T12:24:07;93721.47;;;5.43;100.00
39739;BME280;25422;48.286;8.484;2023-11-21T12:26:42;93721.25;;;5.54;100.00
39739;BME280;25422;48.286;8.484;2023-11-21T12:29:08;93728.44;;;5.61;100.00
39739;BME280;25422;48.286;8.484;2023-11-21T12:31:34;93724.72;;;5.63;100.00
39739;BME280;25422;48.286;8.484;2023-11-21T12:34:00;93730.72;;;5.64;100.00
39739;BME280;25422;48.286;8.484;2023-11-21T12:36:26;93725.09;;;5.68;100.00
39739;BME280;25422;48.286;8.484;2023-11-21T12:38:52;93726.34;;;5.64;100.00
39739;BME280;25422;48.286;8.484;2023-11-21T12:41:17;93730.41;;;5.67;100.00
39739;BME280;25422;48.286;8.484;2023-11-21T12:43:43;93736.56;;;5.84;100.00
39739;BME280;25422;48.286;8.484;2023-11-21T12:46:10;93737.53;;;5.83;100.00
39739;BME280;25422;48.286;8.484;2023-11-21T12:48:41;93739.00;;;5.85;100.00
39739;BME280;25422;48.286;8.484;2023-11-21T12:51:10;93733.97;;;5.84;100.00
39739;BME280;25422;48.286;8.484;2023-11-21T12:53:44;93733.34;;;6.08;100.00
39739;BME280;25422;48.286;8.484;2023-11-21T12:56:10;93733.97;;;6.28;100.00
39739;BME280;25422;48.286;8.484;2023-11-21T12:58:40;93731.66;;;6.25;100.00
39739;BME280;25422;48.286;8.484;2023-11-21T13:01:10;93726.88;;;6.47;100.00
39739;BME280;25422;48.286;8.484;2023-11-21T13:03:38;93733.31;;;6.34;100.00
39739;BME280;25422;48.286;8.484;2023-11-21T13:06:04;93733.72;;;6.13;100.00
39739;BME280;25422;48.286;8.484;2023-11-21T13:08:30;93730.06;;;6.06;100.00